Time;durP1;ratioP1;P1;durP2;ratioP2;P2;SDS_P1;SDS_P2;PMS_P1;PMS_P2;Temp;Humidity;BMP_temperature;BMP_pressure;BME280_temperature;BME280_humidity;BME280_pressure;Samples;Min_cycle;Max_cycle;Signal;HPM_P1;HPM_P2
2022/08/11 00:00:00;;;;;;;3.27;1.70;;;23.70;44.20;;;;;;4938422;29;20638;-77
2022/08/11 00:02:32;;;;;;;2.70;2.13;;;23.60;44.40;;;;;;4938353;29;20572;-77
2022/08/11 00:05:04;;;;;;;2.70;1.63;;;23.60;44.50;;;;;;4955337;28;20978;-76
2022/08/11 00:07:30;;;;;;;2.53;2.00;;;23.60;44.50;;;;;;4959645;28;20568;-76
2022/08/11 00:09:58;;;;;;;2.63;1.20;;;23.50;44.50;;;;;;4955495;29;20596;-77
2022/08/11 00:12:24;;;;;;;5.37;2.50;;;23.50;44.60;;;;;;4938227;29;20793;-76
2022/08/11 00:14:58;;;;;;;2.63;1.97;;;23.50;44.70;;;;;;4906236;29;20580;-77
2022/08/11 00:17:30;;;;;;;2.97;1.70;;;23.40;45.00;;;;;;4938213;29;20567;-76
2022/08/11 00:20:04;;;;;;;4.93;2.17;;;23.40;45.00;;;;;;4953729;28;20632;-76
2022/08/11 00:22:31;;;;;;;4.03;1.90;;;23.30;45.10;;;;;;4955034;28;21033;-76
2022/08/11 00:24:59;;;;;;;3.07;2.17;;;23.30;45.50;;;;;;4954836;28;20576;-76
2022/08/11 00:27:36;;;;;;;2.57;1.83;;;23.30;45.10;;;;;;4955193;29;20909;-76
2022/08/11 00:30:07;;;;;;;3.70;1.83;;;23.20;45.20;;;;;;4937862;29;20940;-76
2022/08/11 00:32:36;;;;;;;3.33;2.10;;;23.20;45.20;;;;;;4937935;29;21077;-76
2022/08/11 00:35:02;;;;;;;3.03;2.07;;;23.20;45.30;;;;;;4905690;29;20576;-76
2022/08/11 00:37:29;;;;;;;3.30;1.83;;;23.10;45.40;;;;;;4921917;29;20576;-76
2022/08/11 00:39:56;;;;;;;3.67;1.90;;;23.10;45.50;;;;;;4921548;29;20639;-77
2022/08/11 00:42:46;;;;;;;2.23;1.80;;;23.10;45.70;;;;;;4941008;29;20568;-77
2022/08/11 00:45:38;;;;;;;2.87;1.73;;;23.00;45.90;;;;;;4937226;29;20568;-77
2022/08/11 00:48:19;;;;;;;3.47;1.70;;;23.00;46.00;;;;;;4937554;29;20575;-77
2022/08/11 00:51:26;;;;;;;3.90;2.20;;;23.00;46.00;;;;;;4954750;29;21010;-77
2022/08/11 00:54:13;;;;;;;2.67;1.50;;;22.90;46.20;;;;;;4922143;29;20643;-77
2022/08/11 00:57:07;;;;;;;2.27;1.60;;;22.90;46.20;;;;;;4921159;29;21157;-76
2022/08/11 00:59:54;;;;;;;2.67;1.73;;;22.80;46.60;;;;;;4954375;28;20654;-77
2022/08/11 01:02:45;;;;;;;2.87;2.10;;;22.80;46.80;;;;;;4937306;29;20626;-76
2022/08/11 01:05:49;;;;;;;2.57;2.00;;;22.80;46.80;;;;;;4953988;28;20560;-76
2022/08/11 01:09:08;;;;;;;3.47;1.77;;;22.70;47.10;;;;;;4937199;29;20690;-76
2022/08/11 01:11:56;;;;;;;2.30;1.97;;;22.70;47.20;;;;;;4922704;29;20659;-76
2022/08/11 01:14:22;;;;;;;3.00;2.17;;;22.70;46.90;;;;;;4954219;28;20571;-76
2022/08/11 01:17:07;;;;;;;2.63;1.80;;;22.60;47.00;;;;;;4920980;29;20935;-76
2022/08/11 01:19:54;;;;;;;3.87;1.67;;;22.50;47.40;;;;;;4939942;29;20188;-76
2022/08/11 01:22:33;;;;;;;2.87;2.30;;;22.50;47.50;;;;;;4937040;29;20937;-76
2022/08/11 01:25:26;;;;;;;7.50;2.10;;;22.50;47.70;;;;;;4936580;29;20590;-76
2022/08/11 01:28:29;;;;;;;2.13;1.90;;;22.50;47.80;;;;;;4921371;29;20703;-76
2022/08/11 01:31:26;;;;;;;2.47;2.00;;;22.40;47.80;;;;;;4955022;28;20627;-77
2022/08/11 01:34:19;;;;;;;2.67;1.93;;;22.40;48.00;;;;;;4953920;28;20570;-76
2022/08/11 01:37:30;;;;;;;2.30;1.70;;;22.40;48.10;;;;;;4953454;28;20593;-76
2022/08/11 01:40:19;;;;;;;4.87;2.10;;;22.30;48.00;;;;;;4857300;29;20624;-76
2022/08/11 01:45:51;;;;;;;3.80;2.33;;;22.20;47.90;;;;;;4953264;28;20576;-76
2022/08/11 01:48:32;;;;;;;2.53;1.77;;;22.20;48.40;;;;;;4936720;29;20564;-76
2022/08/11 01:51:04;;;;;;;4.77;2.43;;;22.20;48.40;;;;;;4936514;29;20638;-76
2022/08/11 01:53:45;;;;;;;3.07;2.00;;;22.10;48.30;;;;;;4953603;29;20575;-76
2022/08/11 01:56:28;;;;;;;3.27;2.00;;;22.10;48.60;;;;;;4956997;28;20603;-77
2022/08/11 01:59:33;;;;;;;2.40;1.80;;;22.10;48.80;;;;;;4936366;28;20972;-76
2022/08/11 02:02:17;;;;;;;4.40;2.70;;;22.00;48.80;;;;;;4936442;29;20575;-76
2022/08/11 02:04:54;;;;;;;4.47;2.70;;;22.00;48.70;;;;;;4953161;29;20560;-76
2022/08/11 02:07:38;;;;;;;3.27;1.97;;;22.00;48.80;;;;;;4936352;29;20564;-76
2022/08/11 02:13:35;;;;;;;4.10;2.87;;;21.90;49.20;;;;;;4920490;29;20638;-76
2022/08/11 02:16:15;;;;;;;2.43;2.23;;;21.90;49.20;;;;;;4953148;29;20980;-76
2022/08/11 02:25:07;;;;;;;2.53;1.80;;;21.90;49.60;;;;;;4953139;28;20651;-76
2022/08/11 02:27:55;;;;;;;3.90;2.10;;;21.80;49.80;;;;;;4953280;29;20930;-76
2022/08/11 02:30:24;;;;;;;4.77;2.30;;;21.80;49.30;;;;;;4921773;29;20635;-76
2022/08/11 02:33:22;;;;;;;3.73;2.33;;;21.80;49.20;;;;;;4960498;29;20568;-76
2022/08/11 02:36:09;;;;;;;6.80;2.53;;;21.80;49.90;;;;;;4956825;28;20579;-76
2022/08/11 02:39:00;;;;;;;2.90;2.27;;;21.80;49.10;;;;;;4940035;29;20570;-75
2022/08/11 02:45:07;;;;;;;4.73;2.30;;;21.80;49.50;;;;;;4955393;28;21154;-76
2022/08/11 02:51:22;;;;;;;2.30;1.93;;;21.70;49.20;;;;;;4956796;28;20631;-76
2022/08/11 02:54:28;;;;;;;3.00;1.73;;;21.70;49.60;;;;;;4933867;28;20668;-76
2022/08/11 02:57:16;;;;;;;2.60;1.80;;;21.70;49.80;;;;;;4939360;29;20931;-76
2022/08/11 02:59:49;;;;;;;3.60;1.90;;;21.70;49.70;;;;;;4956551;28;20619;-76
2022/08/11 03:02:45;;;;;;;3.10;1.77;;;21.70;49.80;;;;;;4956750;29;20575;-75
2022/08/11 03:05:10;;;;;;;4.33;2.43;;;21.60;50.30;;;;;;4956153;28;20578;-75
2022/08/11 03:07:39;;;;;;;3.30;2.27;;;21.60;50.00;;;;;;4923800;29;20683;-76
2022/08/11 03:10:09;;;;;;;2.30;2.03;;;21.60;50.40;;;;;;4959508;28;20304;-76
2022/08/11 03:19:31;;;;;;;3.17;2.20;;;21.50;51.10;;;;;;4939279;29;21254;-75
2022/08/11 03:22:24;;;;;;;2.40;1.70;;;21.50;51.00;;;;;;4956385;28;20622;-75
2022/08/11 03:25:01;;;;;;;3.30;1.90;;;21.40;50.80;;;;;;4938798;29;20785;-76
2022/08/11 03:27:40;;;;;;;2.50;2.03;;;21.40;50.50;;;;;;4939238;29;21146;-76
2022/08/11 03:30:12;;;;;;;4.37;2.10;;;21.50;50.90;;;;;;4939046;29;20635;-76
2022/08/11 03:35:53;;;;;;;3.13;2.00;;;21.50;51.20;;;;;;4955769;28;20568;-76
2022/08/11 03:38:26;;;;;;;2.00;1.43;;;21.50;51.20;;;;;;4923283;29;20572;-76
2022/08/11 03:44:09;;;;;;;4.73;1.53;;;21.50;51.20;;;;;;4956201;29;20576;-76
2022/08/11 03:47:12;;;;;;;2.77;1.90;;;21.40;51.00;;;;;;4959930;29;20587;-76
2022/08/11 03:49:44;;;;;;;3.73;1.83;;;21.40;51.20;;;;;;4946309;29;20658;-76
2022/08/11 03:52:38;;;;;;;2.80;2.03;;;21.40;51.20;;;;;;4954798;29;20987;-76
2022/08/11 03:55:27;;;;;;;2.57;1.50;;;21.30;51.30;;;;;;4938327;29;20568;-76
2022/08/11 03:58:22;;;;;;;3.20;1.80;;;21.30;51.20;;;;;;4938603;29;20956;-76
2022/08/11 04:01:36;;;;;;;2.70;1.47;;;21.30;51.30;;;;;;4930013;29;21049;-76
2022/08/11 04:04:20;;;;;;;2.10;1.57;;;21.30;51.40;;;;;;4956773;28;20656;-76
2022/08/11 04:06:52;;;;;;;3.53;1.40;;;21.30;51.40;;;;;;4982662;28;20613;-76
2022/08/11 04:09:48;;;;;;;2.53;1.37;;;21.20;51.20;;;;;;4990241;28;20649;-76
2022/08/11 04:12:44;;;;;;;2.53;1.83;;;21.20;51.50;;;;;;4994399;28;20586;-76
2022/08/11 04:18:50;;;;;;;7.90;1.70;;;21.10;51.50;;;;;;4994089;28;20566;-76
2022/08/11 04:21:34;;;;;;;4.03;1.50;;;21.10;51.50;;;;;;4994401;28;20621;-76
2022/08/11 04:24:27;;;;;;;2.13;1.40;;;21.10;51.50;;;;;;4972182;28;20611;-76
2022/08/11 04:27:14;;;;;;;2.30;1.50;;;21.10;51.70;;;;;;4964824;28;20623;-76
2022/08/11 04:30:02;;;;;;;5.00;2.10;;;21.10;51.70;;;;;;4922031;29;21219;-76
2022/08/11 04:32:46;;;;;;;3.00;1.30;;;21.10;51.90;;;;;;4937786;29;21190;-75
2022/08/11 04:35:30;;;;;;;2.10;1.60;;;21.10;52.00;;;;;;4937726;29;20579;-75
2022/08/11 04:38:34;;;;;;;3.30;1.57;;;21.10;52.00;;;;;;4955192;28;20568;-76
2022/08/11 04:41:32;;;;;;;3.77;1.43;;;21.10;52.10;;;;;;4955325;28;20662;-75
2022/08/11 04:44:46;;;;;;;3.40;1.70;;;21.10;52.20;;;;;;4955113;29;20615;-76
2022/08/11 05:03:29;;;;;;;5.93;1.83;;;21.40;52.20;;;;;;4955526;29;20568;-78
2022/08/11 05:06:12;;;;;;;3.23;1.83;;;21.50;52.10;;;;;;4842892;29;20591;-78
2022/08/11 05:08:49;;;;;;;4.00;1.97;;;21.70;52.30;;;;;;4859216;29;20589;-78
2022/08/11 05:11:34;;;;;;;2.97;1.30;;;21.80;52.20;;;;;;4944892;23;20701;-80
2022/08/11 05:37:32;;;;;;;3.00;1.30;;;22.40;51.90;;;;;;4954466;28;20571;-81
2022/08/11 05:57:05;;;;;;;3.60;2.30;;;23.10;51.50;;;;;;4968531;28;20579;-82
2022/08/11 05:59:32;;;;;;;2.93;1.80;;;23.20;51.30;;;;;;4936650;29;20584;-82
2022/08/11 06:02:07;;;;;;;3.73;2.10;;;23.40;51.50;;;;;;4958880;28;20672;-81
2022/08/11 06:04:33;;;;;;;2.93;1.97;;;23.70;51.60;;;;;;4938819;29;20961;-79
2022/08/11 06:07:05;;;;;;;3.33;1.47;;;24.10;51.60;;;;;;4941000;29;20623;-79
2022/08/11 06:09:35;;;;;;;3.20;1.60;;;24.30;51.10;;;;;;4952862;28;21053;-78
2022/08/11 06:12:05;;;;;;;2.37;1.97;;;24.40;50.80;;;;;;4953572;28;20706;-77
2022/08/11 06:14:32;;;;;;;2.93;2.40;;;24.40;50.40;;;;;;4953060;29;20660;-78
2022/08/11 06:17:01;;;;;;;2.63;1.47;;;24.50;50.40;;;;;;4952426;29;20573;-78
2022/08/11 06:20:00;;;;;;;4.97;2.00;;;24.60;50.40;;;;;;4958305;28;20619;-77
2022/08/11 06:22:27;;;;;;;4.67;1.90;;;24.90;50.40;;;;;;4946134;29;20623;-78
2022/08/11 06:24:58;;;;;;;2.87;1.70;;;25.60;51.10;;;;;;4952963;29;20588;-78
2022/08/11 06:27:26;;;;;;;3.40;2.23;;;26.30;50.90;;;;;;4953178;29;20579;-78
2022/08/11 06:29:54;;;;;;;3.20;1.80;;;27.30;50.60;;;;;;4953458;28;21086;-78
2022/08/11 06:32:30;;;;;;;6.20;1.50;;;28.10;50.40;;;;;;4952756;28;20624;-78
2022/08/11 06:35:13;;;;;;;4.13;1.60;;;28.80;49.70;;;;;;4948315;29;20686;-77
2022/08/11 06:38:02;;;;;;;2.43;1.23;;;29.70;49.00;;;;;;4948648;29;20584;-77
2022/08/11 06:43:51;;;;;;;1.90;1.20;;;31.70;47.10;;;;;;4932287;29;20579;-77
2022/08/11 06:46:30;;;;;;;2.10;1.40;;;32.60;45.30;;;;;;4933696;29;20571;-77
2022/08/11 06:48:56;;;;;;;2.53;1.50;;;33.50;44.80;;;;;;4948328;29;20590;-77
2022/08/11 06:51:23;;;;;;;2.60;1.53;;;34.20;43.80;;;;;;4944775;28;20743;-77
2022/08/11 06:54:01;;;;;;;3.07;1.30;;;34.60;42.60;;;;;;4952071;29;20667;-77
2022/08/11 07:02:21;;;;;;;3.30;1.53;;;36.00;40.30;;;;;;4948496;29;20597;-77
2022/08/11 07:04:55;;;;;;;4.53;1.80;;;36.40;39.00;;;;;;4933228;29;20579;-77
2022/08/11 07:16:34;;;;;;;3.00;1.50;;;35.90;35.00;;;;;;4949781;28;20560;-77
2022/08/11 07:30:31;;;;;;;6.93;1.60;;;35.70;35.60;;;;;;4948457;28;20632;-76
2022/08/11 07:33:00;;;;;;;4.80;1.33;;;35.80;35.60;;;;;;4956337;29;20661;-76
2022/08/11 07:35:33;;;;;;;3.20;1.33;;;36.00;35.60;;;;;;4970814;28;20575;-77
2022/08/11 07:38:10;;;;;;;3.93;1.37;;;36.30;35.30;;;;;;4970749;28;20926;-77
2022/08/11 07:40:37;;;;;;;3.00;1.60;;;36.60;35.10;;;;;;4955994;28;20575;-77
2022/08/11 07:43:03;;;;;;;3.50;1.80;;;36.90;34.70;;;;;;4954817;29;20575;-76
2022/08/11 07:53:46;;;;;;;3.23;1.47;;;36.50;32.50;;;;;;4955987;29;21107;-76
2022/08/11 07:56:14;;;;;;;2.63;1.60;;;36.20;32.10;;;;;;4955679;28;20568;-78
2022/08/11 08:18:07;;;;;;;2.43;1.43;;;37.60;31.70;;;;;;4955307;29;20603;-76
2022/08/11 08:20:36;;;;;;;3.50;1.20;;;37.50;31.30;;;;;;4969956;28;20642;-76
2022/08/11 08:23:04;;;;;;;1.90;1.40;;;37.60;31.10;;;;;;4955397;29;20710;-76
2022/08/11 08:25:32;;;;;;;4.83;1.30;;;37.70;31.00;;;;;;4954838;28;21173;-76
2022/08/11 08:28:02;;;;;;;2.70;1.20;;;37.50;30.20;;;;;;4954122;28;21015;-76
2022/08/11 08:30:47;;;;;;;2.33;1.63;;;37.50;30.90;;;;;;4969754;28;20624;-76
2022/08/11 08:33:16;;;;;;;7.67;1.67;;;37.80;30.90;;;;;;4955021;28;20646;-76
2022/08/11 08:35:44;;;;;;;4.03;1.53;;;37.90;30.10;;;;;;4969730;28;20576;-76
2022/08/11 08:38:11;;;;;;;3.57;1.60;;;37.70;29.70;;;;;;4955057;28;20619;-76
2022/08/11 08:40:40;;;;;;;6.30;1.83;;;37.50;29.40;;;;;;4955048;28;20578;-76
2022/08/11 08:43:10;;;;;;;3.37;1.40;;;37.10;29.10;;;;;;4969985;28;20943;-76
2022/08/11 08:45:38;;;;;;;2.50;1.50;;;37.00;29.60;;;;;;4955940;29;20656;-76
2022/08/11 08:48:10;;;;;;;3.37;1.33;;;37.00;30.10;;;;;;4946011;29;20591;-76
2022/08/11 08:53:31;;;;;;;8.10;4.13;;;37.30;29.70;;;;;;4944962;29;20577;-75
2022/08/11 08:56:01;;;;;;;10.00;7.23;;;37.40;29.50;;;;;;4935203;29;20663;-75
2022/08/11 08:58:29;;;;;;;8.43;5.00;;;37.40;29.30;;;;;;4950190;29;20941;-75
2022/08/11 09:00:57;;;;;;;4.83;3.00;;;37.40;29.70;;;;;;4935452;29;20565;-75
2022/08/11 09:03:23;;;;;;;5.60;2.27;;;37.70;29.70;;;;;;4935476;29;20568;-75
2022/08/11 09:05:53;;;;;;;3.40;1.47;;;37.90;29.10;;;;;;4933868;29;20580;-75
2022/08/11 09:08:20;;;;;;;3.47;1.80;;;38.00;28.60;;;;;;4934418;29;20577;-75
2022/08/11 09:11:48;;;;;;;3.60;1.63;;;38.00;28.20;;;;;;4934742;29;20656;-76
2022/08/11 09:13:36;;;;;;;3.83;1.57;;;38.20;28.90;;;;;;4935112;29;20616;-75
2022/08/11 09:16:05;;;;;;;4.87;1.40;;;38.40;28.40;;;;;;4940471;29;21144;-75
2022/08/11 09:18:32;;;;;;;2.40;1.40;;;38.60;28.00;;;;;;4945917;29;20584;-75
2022/08/11 09:21:01;;;;;;;7.43;1.50;;;38.70;28.10;;;;;;4942226;28;20615;-75
2022/08/11 09:28:59;;;;;;;1.60;1.00;;;39.50;27.90;;;;;;4935376;29;20620;-75
2022/08/11 09:31:25;;;;;;;3.20;1.00;;;39.70;27.40;;;;;;4935079;29;21434;-74
2022/08/11 09:33:53;;;;;;;2.90;1.17;;;39.90;27.50;;;;;;4934734;29;21122;-74
2022/08/11 09:41:50;;;;;;;4.63;1.17;;;41.00;27.60;;;;;;4949391;29;20609;-75
2022/08/11 09:47:04;;;;;;;4.70;1.00;;;41.50;27.10;;;;;;4949675;29;20577;-75
2022/08/11 09:49:31;;;;;;;5.60;1.50;;;41.80;26.30;;;;;;4949503;29;20676;-75
2022/08/11 09:51:57;;;;;;;1.90;0.90;;;41.80;26.50;;;;;;4949560;29;20675;-74
2022/08/11 09:54:25;;;;;;;1.80;1.20;;;41.90;26.00;;;;;;4934489;29;20997;-75
2022/08/11 09:59:40;;;;;;;2.43;1.00;;;41.40;25.70;;;;;;4939770;29;20589;-74
2022/08/11 10:02:08;;;;;;;2.80;1.00;;;41.60;26.30;;;;;;4945338;28;20626;-75
2022/08/11 10:04:44;;;;;;;3.63;1.10;;;41.90;26.10;;;;;;4952529;29;20586;-75
2022/08/11 10:07:14;;;;;;;2.27;1.90;;;42.20;25.90;;;;;;4954128;28;20574;-76
2022/08/11 10:09:49;;;;;;;1.90;1.20;;;42.50;25.50;;;;;;4953580;28;20616;-75
2022/08/11 10:12:36;;;;;;;1.70;1.03;;;42.70;25.60;;;;;;4953923;28;21197;-75
2022/08/11 10:21:09;;;;;;;2.43;0.80;;;43.80;25.50;;;;;;4954154;29;20672;-75
2022/08/11 10:27:02;;;;;;;2.80;1.00;;;44.10;24.10;;;;;;4952076;29;20624;-76
2022/08/11 10:35:24;;;;;;;1.80;1.20;;;43.60;23.80;;;;;;4958177;29;20600;-75
2022/08/11 10:37:52;;;;;;;3.80;0.90;;;43.50;23.90;;;;;;4953573;29;21130;-76
2022/08/11 10:40:23;;;;;;;1.50;0.90;;;43.40;23.80;;;;;;4953271;29;20610;-75
2022/08/11 10:43:05;;;;;;;1.40;0.87;;;43.10;23.70;;;;;;4948604;28;20715;-78
2022/08/11 10:48:27;;;;;;;3.70;1.10;;;43.10;24.00;;;;;;4949095;29;20573;-76
2022/08/11 10:51:12;;;;;;;1.77;0.80;;;43.10;23.40;;;;;;4949702;28;20647;-76
2022/08/11 10:59:16;;;;;;;1.60;1.00;;;42.70;23.60;;;;;;4952938;29;20579;-75
2022/08/11 11:01:44;;;;;;;2.80;1.10;;;42.60;23.20;;;;;;4936629;29;20678;-75
2022/08/11 11:04:16;;;;;;;1.53;1.00;;;42.10;22.70;;;;;;4938204;29;20561;-76
2022/08/11 11:07:02;;;;;;;2.33;0.80;;;41.60;22.60;;;;;;4936733;29;21054;-77
2022/08/11 11:09:46;;;;;;;2.63;0.90;;;41.50;23.70;;;;;;4938753;29;20569;-76
2022/08/11 11:18:11;;;;;;;2.70;1.33;;;42.30;24.10;;;;;;4952761;29;20571;-77
2022/08/11 11:20:47;;;;;;;2.60;0.93;;;42.30;24.00;;;;;;4938236;29;21206;-74
2022/08/11 11:23:24;;;;;;;1.53;0.80;;;42.40;23.50;;;;;;4946437;29;20592;-75
2022/08/11 11:26:11;;;;;;;3.83;0.90;;;42.40;23.30;;;;;;4949214;29;20691;-75
2022/08/11 11:28:56;;;;;;;1.70;0.90;;;42.40;23.10;;;;;;4952930;28;20595;-76
2022/08/11 11:31:40;;;;;;;1.73;0.90;;;42.00;22.10;;;;;;4937191;29;20647;-76
2022/08/11 11:34:44;;;;;;;2.57;1.00;;;41.80;22.60;;;;;;4951949;29;20565;-76
2022/08/11 11:37:13;;;;;;;1.87;0.97;;;41.50;23.00;;;;;;4967078;28;20960;-76
2022/08/11 11:39:39;;;;;;;3.67;1.20;;;41.50;23.00;;;;;;4942823;29;20621;-76
2022/08/11 11:42:08;;;;;;;1.80;1.20;;;41.20;22.60;;;;;;4936908;29;20639;-76
2022/08/11 11:44:38;;;;;;;2.73;1.20;;;41.00;22.60;;;;;;4936558;29;20184;-76
2022/08/11 11:47:05;;;;;;;2.27;1.00;;;40.70;22.70;;;;;;4937734;29;21065;-77
2022/08/11 11:49:38;;;;;;;2.33;1.03;;;40.40;22.70;;;;;;4952398;29;20572;-76
2022/08/11 11:52:07;;;;;;;1.67;1.03;;;40.10;22.90;;;;;;4936528;29;20597;-76
2022/08/11 11:54:35;;;;;;;1.83;0.90;;;39.80;23.00;;;;;;4936366;29;20619;-76
2022/08/11 12:02:38;;;;;;;2.43;1.20;;;39.30;23.70;;;;;;4936465;29;20608;-77
2022/08/11 12:05:06;;;;;;;2.63;1.10;;;39.40;23.70;;;;;;4936205;29;20561;-76
2022/08/11 12:10:19;;;;;;;2.07;0.90;;;39.50;23.80;;;;;;4936237;29;20667;-77
2022/08/11 12:15:30;;;;;;;1.80;1.00;;;39.60;24.10;;;;;;4934307;29;20581;-76
2022/08/11 12:17:58;;;;;;;4.80;1.10;;;39.60;23.60;;;;;;4935984;29;20556;-77
2022/08/11 12:20:24;;;;;;;2.20;1.20;;;39.50;23.70;;;;;;4934782;29;20573;-76
2022/08/11 12:28:28;;;;;;;1.90;1.00;;;38.80;23.50;;;;;;4935637;29;20654;-76
2022/08/11 12:30:55;;;;;;;6.00;1.57;;;38.60;23.90;;;;;;4935611;29;20668;-76
2022/08/11 12:33:21;;;;;;;2.47;1.00;;;38.50;24.20;;;;;;4950612;29;20571;-76
2022/08/11 12:35:55;;;;;;;2.13;1.10;;;38.60;24.30;;;;;;4935421;29;20600;-76
2022/08/11 12:38:22;;;;;;;1.87;1.00;;;38.60;24.00;;;;;;4936090;29;21087;-76
2022/08/11 12:46:24;;;;;;;2.03;1.00;;;38.30;24.30;;;;;;4950357;29;20577;-76
2022/08/11 12:52:00;;;;;;;1.97;1.20;;;38.30;24.00;;;;;;4951078;29;20608;-76
2022/08/11 12:54:50;;;;;;;1.70;1.10;;;38.00;23.90;;;;;;4934791;29;20581;-75
2022/08/11 13:05:58;;;;;;;2.65;1.38;;;36.60;23.90;;;;;;4946702;29;20759;-76
2022/08/11 13:08:26;;;;;;;2.37;1.57;;;36.20;24.40;;;;;;4953225;29;20194;-76
2022/08/11 13:13:42;;;;;;;3.70;1.40;;;35.90;24.80;;;;;;4934669;29;20938;-76
2022/08/11 13:16:09;;;;;;;4.63;1.20;;;35.50;24.90;;;;;;4933529;29;20582;-76
2022/08/11 13:18:38;;;;;;;2.20;1.23;;;35.30;25.10;;;;;;4935224;29;20572;-77
2022/08/11 13:21:04;;;;;;;2.70;1.40;;;35.10;25.00;;;;;;4934902;29;20609;-76
2022/08/11 13:23:30;;;;;;;1.97;1.20;;;34.90;25.20;;;;;;4935127;29;20571;-76
2022/08/11 13:25:56;;;;;;;3.10;1.27;;;34.80;25.40;;;;;;4933476;29;21210;-77
2022/08/11 13:28:23;;;;;;;2.70;1.40;;;34.70;25.60;;;;;;4933472;29;21130;-76
2022/08/11 13:33:54;;;;;;;2.70;1.27;;;34.50;25.90;;;;;;4949898;29;20579;-77
2022/08/11 13:36:26;;;;;;;3.60;1.87;;;34.30;26.50;;;;;;4937267;29;20694;-77
2022/08/11 13:38:54;;;;;;;2.83;1.30;;;34.40;26.10;;;;;;4954842;28;20607;-76
2022/08/11 13:41:37;;;;;;;2.33;1.20;;;34.40;26.10;;;;;;4952104;28;20629;-76
2022/08/11 13:44:06;;;;;;;1.80;1.20;;;34.40;26.20;;;;;;4986887;22;20675;-80
2022/08/11 13:46:32;;;;;;;2.73;1.10;;;34.40;26.10;;;;;;4982014;28;20594;-79
2022/08/11 13:48:59;;;;;;;3.83;1.20;;;34.50;26.20;;;;;;4956618;28;20591;-79
2022/08/11 13:51:29;;;;;;;1.93;1.13;;;34.50;26.30;;;;;;4956820;28;20694;-78
2022/08/11 13:54:08;;;;;;;4.37;1.47;;;34.50;26.20;;;;;;4958515;28;20598;-78
2022/08/11 13:56:39;;;;;;;4.37;1.43;;;34.40;26.40;;;;;;4960691;29;20606;-77
2022/08/11 13:59:07;;;;;;;2.60;1.10;;;34.40;26.30;;;;;;4961198;29;20563;-78
2022/08/11 14:01:38;;;;;;;3.40;1.30;;;34.30;26.30;;;;;;4971562;28;21196;-79
2022/08/11 14:04:10;;;;;;;2.83;1.00;;;34.30;26.40;;;;;;4954522;28;21232;-79
2022/08/11 14:06:44;;;;;;;2.07;1.10;;;34.20;26.40;;;;;;4954305;29;20594;-78
2022/08/11 14:09:13;;;;;;;3.83;1.43;;;34.30;26.70;;;;;;4969491;28;20933;-78
2022/08/11 14:15:18;;;;;;;4.53;1.90;;;34.30;26.70;;;;;;4953300;28;20610;-78
2022/08/11 14:17:48;;;;;;;2.53;1.10;;;34.30;26.70;;;;;;4946470;28;20742;-80
2022/08/11 14:20:17;;;;;;;3.37;1.20;;;34.40;27.30;;;;;;4968947;28;21165;-80
2022/08/11 14:22:47;;;;;;;3.93;1.43;;;34.40;26.80;;;;;;4953965;29;21132;-80
2022/08/11 14:25:15;;;;;;;5.57;1.20;;;34.50;26.90;;;;;;4955256;28;20709;-79
2022/08/11 14:27:44;;;;;;;3.80;1.50;;;34.40;26.90;;;;;;4961808;28;20592;-80
2022/08/11 14:30:53;;;;;;;2.80;1.47;;;34.40;26.70;;;;;;4977055;28;21013;-78
2022/08/11 14:32:57;;;;;;;2.07;1.17;;;34.40;26.50;;;;;;4977412;28;20642;-79
2022/08/11 14:35:26;;;;;;;3.17;1.80;;;34.30;26.50;;;;;;4994971;28;20580;-80
2022/08/11 14:37:52;;;;;;;3.03;1.20;;;34.20;26.50;;;;;;4978778;28;20590;-80
2022/08/11 14:48:38;;;;;;;2.70;1.40;;;34.30;26.70;;;;;;4976681;28;20561;-80
2022/08/11 14:51:05;;;;;;;1.90;1.07;;;34.30;26.70;;;;;;4976501;28;20646;-79
2022/08/11 14:53:31;;;;;;;2.80;1.67;;;34.30;26.70;;;;;;4976129;28;20200;-80
2022/08/11 14:59:47;;;;;;;2.53;1.30;;;34.40;26.70;;;;;;4938907;29;21078;-80
2022/08/11 15:05:24;;;;;;;3.73;1.17;;;34.60;26.70;;;;;;4976207;28;20572;-80
2022/08/11 15:07:52;;;;;;;2.27;1.10;;;34.60;26.70;;;;;;4975771;28;20569;-80
2022/08/11 15:10:19;;;;;;;2.07;0.80;;;34.70;26.70;;;;;;4981108;28;20585;-79
2022/08/11 15:12:46;;;;;;;4.63;1.37;;;34.70;26.60;;;;;;4976076;28;20575;-79
2022/08/11 15:18:03;;;;;;;10.40;2.20;;;34.80;26.60;;;;;;4964204;28;20606;-79
2022/08/11 15:37:44;;;;;;;6.53;1.63;;;34.80;26.70;;;;;;4955718;28;20920;-79
2022/08/11 15:46:10;;;;;;;7.93;2.00;;;34.70;26.70;;;;;;4954988;28;20598;-79
2022/08/11 15:48:49;;;;;;;2.77;1.40;;;34.70;27.20;;;;;;4958505;29;20656;-80
2022/08/11 15:51:32;;;;;;;2.13;1.37;;;34.60;26.70;;;;;;4977622;28;20617;-80
2022/08/11 15:54:01;;;;;;;3.20;1.67;;;34.60;26.60;;;;;;4966992;28;20625;-79
2022/08/11 15:56:30;;;;;;;2.93;1.40;;;34.60;26.60;;;;;;4973969;28;20976;-79
2022/08/11 16:04:33;;;;;;;5.53;1.30;;;34.60;26.60;;;;;;4970724;28;20605;-80
2022/08/11 16:07:05;;;;;;;5.03;1.23;;;34.60;26.60;;;;;;4955761;28;21173;-79
2022/08/11 16:09:59;;;;;;;23.57;2.30;;;34.60;26.60;;;;;;4955860;28;20577;-79
2022/08/11 16:12:29;;;;;;;3.03;1.17;;;34.60;27.00;;;;;;4969993;28;20598;-80
2022/08/11 16:17:52;;;;;;;3.00;1.63;;;34.60;26.70;;;;;;4954399;29;20883;-80
2022/08/11 16:20:20;;;;;;;2.13;1.67;;;34.60;27.20;;;;;;4970141;28;20634;-80
2022/08/11 16:22:49;;;;;;;20.93;2.87;;;34.50;26.80;;;;;;4954960;29;20922;-80
2022/08/11 16:25:23;;;;;;;37.97;6.07;;;34.50;26.90;;;;;;4958680;28;20603;-80
2022/08/11 16:28:01;;;;;;;4.70;1.73;;;34.60;27.00;;;;;;4954329;29;20988;-79
2022/08/11 16:30:28;;;;;;;3.23;1.23;;;34.50;26.80;;;;;;4954175;29;20941;-80
2022/08/11 16:32:56;;;;;;;2.93;1.83;;;34.60;26.80;;;;;;4970301;28;20924;-79
2022/08/11 16:40:57;;;;;;;8.00;1.40;;;34.50;26.80;;;;;;4955599;29;20729;-81
2022/08/11 16:49:10;;;;;;;20.70;3.47;;;34.50;26.90;;;;;;4970267;28;20568;-81
2022/08/11 16:51:36;;;;;;;11.30;2.53;;;34.50;26.90;;;;;;4958009;28;20635;-81
2022/08/11 16:54:03;;;;;;;4.95;1.70;;;34.50;27.00;;;;;;4956052;28;21144;-80
2022/08/11 16:56:42;;;;;;;3.30;1.50;;;34.30;27.30;;;;;;4972618;28;20177;-79
2022/08/11 16:59:17;;;;;;;6.13;1.60;;;34.30;27.10;;;;;;4940468;29;21013;-81
2022/08/11 17:02:04;;;;;;;5.53;2.00;;;34.30;27.20;;;;;;4962810;28;20642;-81
2022/08/11 17:13:10;;;;;;;1.97;1.20;;;34.30;27.00;;;;;;4953539;29;20664;-78
2022/08/11 17:18:39;;;;;;;5.77;1.30;;;34.20;27.00;;;;;;4954560;29;20946;-80
2022/08/11 17:24:31;;;;;;;12.43;2.20;;;34.00;26.90;;;;;;4952886;29;20640;-79
2022/08/11 17:26:58;;;;;;;2.20;1.60;;;34.00;27.00;;;;;;4953131;29;20628;-79
2022/08/11 17:29:45;;;;;;;5.77;1.90;;;34.10;27.00;;;;;;4953188;29;21166;-79
2022/08/11 17:38:20;;;;;;;6.03;1.50;;;33.90;27.10;;;;;;4937218;29;20603;-80
2022/08/11 17:49:12;;;;;;;8.27;1.90;;;33.60;27.30;;;;;;4975719;28;20580;-82
2022/08/11 18:04:41;;;;;;;9.83;3.33;;;33.10;27.90;;;;;;4957440;29;20616;-79
